WetterOnline ( https://www.wetteronline.de )

Wetter aktuell Schweinfurt

Aktuelles Wetter: Bad Kissingen (266m)

6-stündlich | Neueste Meldungen
Ortszeit Temperatur Wetter
Mo, 26.10. 19:00 8.6° C bedeckt
Mo, 26.10. 13:00 10.0° C Sprühregen
Mo, 26.10. 7:00 9.6° C leichter Regen
Mo, 26.10. 1:00 10.4° C bedeckt
So, 25.10. 19:00 11.0° C bedeckt
So, 25.10. 13:00 13.3° C wolkig
So, 25.10. 7:00 5.7° C Nebel
So, 25.10. 2:00 8.9° C wolkig
Ortszeit Temperatur Wetter
Mo, 26.10. 21:00 8.0° C bedeckt
Mo, 26.10. 20:50 8.0° C bedeckt
Mo, 26.10. 20:40 8.1° C bedeckt
Mo, 26.10. 20:30 8.0° C bedeckt
Mo, 26.10. 20:20 8.0° C bedeckt
Mo, 26.10. 20:10 8.0° C bedeckt
Mo, 26.10. 20:00 8.1° C bedeckt
Mo, 26.10. 19:30 8.4° C bedeckt
Mo, 26.10. 19:00 8.6° C bedeckt
Mo, 26.10. 18:30 8.7° C wolkig
Mo, 26.10. 18:00 9.0° C bewölkt
Ortszeit Relative Feuchte Sichtweite
Mo, 26.10. 19:00 92% 45 km
Mo, 26.10. 13:00 90% 35 km
Mo, 26.10. 7:00 98% 0.4 km
Mo, 26.10. 1:00 90% 55 km
So, 25.10. 19:00 85% 35 km
So, 25.10. 13:00 73% 60 km
So, 25.10. 7:00 99% 100 m
So, 25.10. 2:00 92% 30 km
Ortszeit Relative Feuchte Sichtweite
Mo, 26.10. 21:00 89% 40 km
Mo, 26.10. 20:50 89% -
Mo, 26.10. 20:40 90% -
Mo, 26.10. 20:30 91% 40 km
Mo, 26.10. 20:20 91% -
Mo, 26.10. 20:10 92% -
Mo, 26.10. 20:00 92% 40 km
Mo, 26.10. 19:30 92% 40 km
Mo, 26.10. 19:00 92% 45 km
Mo, 26.10. 18:30 91% 40 km
Mo, 26.10. 18:00 88% 45 km
Ortszeit Niederschlagsmenge Niederschlagsart
Mo, 26.10. 19:00 8 l/m2 in 12 Std. Regen
Mo, 26.10. 13:00 8 l/m2 in 6 Std. Regen
Mo, 26.10. 7:00 6 l/m2 in 12 Std. Regen
Mo, 26.10. 1:00 0.1 l/m2 in 6 Std. Regen
So, 25.10. 19:00 0.0 l/m2 in 12 Std. -
So, 25.10. 13:00 0.0 l/m2 in 6 Std. -
So, 25.10. 7:00 0.0 l/m2 in 12 Std. -
So, 25.10. 2:00 0.0 l/m2 in 6 Std. -
Ortszeit Niederschlagsmenge Niederschlagsart
Mo, 26.10. 21:00 0.0 l/m2 in 1 Std. -
Mo, 26.10. 20:50 keine Meldung -
Mo, 26.10. 20:40 keine Meldung -
Mo, 26.10. 20:30 0.0 l/m2 in 1 Std. -
Mo, 26.10. 20:20 keine Meldung -
Mo, 26.10. 20:10 keine Meldung -
Mo, 26.10. 20:00 0.0 l/m2 in 1 Std. -
Mo, 26.10. 19:30 0.0 l/m2 in 1 Std. -
Mo, 26.10. 19:00 0.0 l/m2 in 1 Std. Regen
Mo, 26.10. 18:30 0.0 l/m2 in 1 Std. -
Mo, 26.10. 18:00 0.0 l/m2 in 1 Std. -
Ortszeit Stärke Spitze Richtung
km/h Bft. km/h Grad Sektor
Mo, 26.10. 19:00 13 3 24 230° SW
Mo, 26.10. 13:00 11 2 25 270° W
Mo, 26.10. 7:00 4 1 11 220° SW
Mo, 26.10. 1:00 0 0 22 - -
So, 25.10. 19:00 4 1 22 330° NW
So, 25.10. 13:00 9 2 17 210° SW
So, 25.10. 7:00 7 2 11 30° NO
So, 25.10. 2:00 6 1 19 240° SW
Ortszeit Stärke Spitze Richtung
km/h Bft. km/h Grad Sektor
Mo, 26.10. 21:00 18 3 25 240° SW
Mo, 26.10. 20:50 18 3 - 240° SW
Mo, 26.10. 20:40 14 3 - 240° SW
Mo, 26.10. 20:30 14 3 18 240° SW
Mo, 26.10. 20:20 14 3 - 240° SW
Mo, 26.10. 20:10 11 2 - 230° SW
Mo, 26.10. 20:00 14 3 22 230° SW
Mo, 26.10. 19:30 15 3 20 230° SW
Mo, 26.10. 19:00 13 3 24 230° SW
Mo, 26.10. 18:30 11 2 14 230° SW
Mo, 26.10. 18:00 13 3 22 230° SW
Ortszeit Untergrenze Bedeckung Gattung
total tief tief mittel hoch
Mo, 26.10. 19:00 3900 m 8/8 8/8 - - -
Mo, 26.10. 13:00 450 m 7/8 7/8 - - -
Mo, 26.10. 7:00 <30 m 7/8 0/8 - - -
Mo, 26.10. 1:00 1500 m 8/8 8/8 - - -
So, 25.10. 19:00 3900 m 8/8 8/8 - - -
So, 25.10. 13:00 4800 m 6/8 5/8 - - -
So, 25.10. 7:00 <30 m 7/8 0/8 - - -
So, 25.10. 2:00 7500 m 7/8 0/8 - - -
Ortszeit Bedeckungsgrad in Achtel und Wolkenuntergrenze
Mo, 26.10. 21:00 8(3900m)
Mo, 26.10. 20:50 8(3900m)
Mo, 26.10. 20:40 8(4200m)
Mo, 26.10. 20:30 8(4200m)
Mo, 26.10. 20:20 8(4200m)
Mo, 26.10. 20:10 8(4200m)
Mo, 26.10. 20:00 8(3900m)
Mo, 26.10. 19:30 8(3900m) 8(3900m)
Mo, 26.10. 19:00 8(3900m)
Mo, 26.10. 18:30 3(600m) 7(3600m) 7(4500m)
Mo, 26.10. 18:00 1(270m) 6(1050m) 8(3600m)
Ortszeit Luftdruck NN (hPa) Tendenz (hPa in 3 Std.)
Mo, 26.10. 19:00 1007 + 1,2
Mo, 26.10. 13:00 1005 + 0,1
Mo, 26.10. 7:00 1003 - 0,7
Mo, 26.10. 1:00 1005 - 1,5
So, 25.10. 19:00 1006 - 0,6
So, 25.10. 13:00 1008 - 2,1
So, 25.10. 7:00 1012 - 0,8
So, 25.10. 2:00 1014 - 1,2
Ortszeit Luftdruck NN (hPa) Tendenz (hPa in 3 Std.)
Mo, 26.10. 21:00 1008 + 1,2
Mo, 26.10. 20:50 1008 keine Meldung
Mo, 26.10. 20:40 1008 keine Meldung
Mo, 26.10. 20:30 1008 + 1,5
Mo, 26.10. 20:20 1008 keine Meldung
Mo, 26.10. 20:10 1008 keine Meldung
Mo, 26.10. 20:00 1008 + 1,5
Mo, 26.10. 19:30 1008 + 1,6
Mo, 26.10. 19:00 1007 + 1,2
Mo, 26.10. 18:30 1007 + 1,0
Mo, 26.10. 18:00 1007 + 1,2
Ortszeit Schneehöhe (cm)
Mo, 26.10. 19:00 0
Mo, 26.10. 13:00 0
Mo, 26.10. 7:00 0
Mo, 26.10. 1:00 0
So, 25.10. 19:00 0
So, 25.10. 13:00 0
So, 25.10. 7:00 0
So, 25.10. 2:00 0
Ortszeit Schneehöhe (cm)
Mo, 26.10. 21:00 0
Mo, 26.10. 20:50 0
Mo, 26.10. 20:40 0
Mo, 26.10. 20:30 0
Mo, 26.10. 20:20 0
Mo, 26.10. 20:10 0
Mo, 26.10. 20:00 0
Mo, 26.10. 19:30 0
Mo, 26.10. 19:00 0
Mo, 26.10. 18:30 0
Mo, 26.10. 18:00 0
Link zu dieser Seite / Seite empfehlen

Das Wetter in ...